createdAt,value
2019-05-26T00:01:47.130Z,10.9
2019-05-26T00:04:18.761Z,10.6
2019-05-26T00:06:50.713Z,10.6
2019-05-26T00:09:22.343Z,10.7
2019-05-26T00:11:54.124Z,10.3
2019-05-26T00:14:25.752Z,8.8
2019-05-26T00:16:57.354Z,7.8
2019-05-26T00:19:28.894Z,6.9
2019-05-26T00:22:00.759Z,6.8
2019-05-26T00:24:32.334Z,6.9
2019-05-26T00:27:04.320Z,6.4
2019-05-26T00:29:35.946Z,6.4
2019-05-26T00:32:07.833Z,6.8
2019-05-26T00:34:39.403Z,6.6
2019-05-26T00:37:11.221Z,6.6
2019-05-26T00:39:42.779Z,6.6
2019-05-26T00:42:14.908Z,7.5
2019-05-26T00:44:46.599Z,9.1
2019-05-26T00:47:18.227Z,9.9
2019-05-26T00:49:49.749Z,9.3
2019-05-26T00:52:21.559Z,11.9
2019-05-26T00:54:53.132Z,11.4
2019-05-26T00:57:25.159Z,13.5
2019-05-26T00:59:56.686Z,14.6
2019-05-26T01:02:28.323Z,13.8
2019-05-26T01:05:00.057Z,14.5
2019-05-26T01:07:31.679Z,16.0
2019-05-26T01:10:03.283Z,18.9
2019-05-26T01:12:35.024Z,19.4
2019-05-26T01:15:06.613Z,21.8
2019-05-26T01:17:38.319Z,22.9
2019-05-26T01:20:09.945Z,23.1
2019-05-26T01:22:41.690Z,24.0
2019-05-26T01:25:13.328Z,24.6
2019-05-26T01:27:45.334Z,23.2
2019-05-26T01:31:25.730Z,25.0
2019-05-26T01:33:59.500Z,25.3
2019-05-26T01:36:33.226Z,23.8
2019-05-26T01:39:07.197Z,21.6
2019-05-26T01:41:40.929Z,20.4
2019-05-26T01:44:14.803Z,19.9
2019-05-26T01:46:48.681Z,17.4
2019-05-26T01:49:22.724Z,17.0
2019-05-26T01:51:56.327Z,16.4
2019-05-26T01:54:30.211Z,16.8
2019-05-26T01:57:03.857Z,17.4
2019-05-26T01:59:37.603Z,15.5
2019-05-26T02:02:11.253Z,14.3
2019-05-26T02:04:45.057Z,13.1
2019-05-26T02:07:18.804Z,10.7
2019-05-26T02:09:52.604Z,8.6
2019-05-26T02:12:26.333Z,9.0
2019-05-26T02:15:00.323Z,7.0
2019-05-26T02:17:33.933Z,6.4
2019-05-26T02:20:07.746Z,5.8
2019-05-26T02:22:41.474Z,6.3
2019-05-26T02:25:15.397Z,6.2
2019-05-26T02:27:49.267Z,5.0
2019-05-26T02:30:23.482Z,5.0
2019-05-26T02:32:55.612Z,5.0
2019-05-26T02:35:27.981Z,5.1
2019-05-26T02:38:00.167Z,5.0
2019-05-26T02:40:32.773Z,5.0
2019-05-26T02:43:04.990Z,4.6
2019-05-26T02:45:37.633Z,4.7
2019-05-26T02:48:09.917Z,4.4
2019-05-26T02:50:42.368Z,4.4
2019-05-26T02:53:14.568Z,4.6
2019-05-26T02:55:46.921Z,4.1
2019-05-26T02:58:19.127Z,4.6
2019-05-26T03:00:51.886Z,4.6
2019-05-26T03:03:24.198Z,4.0
2019-05-26T03:05:56.641Z,4.5
2019-05-26T03:08:28.876Z,3.8
2019-05-26T03:11:01.297Z,3.3
2019-05-26T03:13:33.635Z,3.7
2019-05-26T03:16:06.268Z,3.2
2019-05-26T03:18:38.481Z,3.5
2019-05-26T03:21:10.742Z,3.7
2019-05-26T03:23:43.035Z,3.3
2019-05-26T03:26:15.327Z,3.4
2019-05-26T03:28:47.543Z,2.8
2019-05-26T03:31:25.888Z,3.2
2019-05-26T03:33:59.739Z,3.4
2019-05-26T03:36:33.646Z,3.4
2019-05-26T03:39:07.377Z,3.4
2019-05-26T03:41:41.458Z,2.9
2019-05-26T03:44:15.269Z,3.1
2019-05-26T03:46:49.176Z,2.8
2019-05-26T03:49:22.880Z,3.1
2019-05-26T03:51:56.608Z,2.6
2019-05-26T03:54:30.310Z,2.3
2019-05-26T03:57:04.185Z,2.6
2019-05-26T03:59:38.181Z,2.6
2019-05-26T04:02:12.496Z,2.5
2019-05-26T04:04:46.276Z,2.5
2019-05-26T04:07:20.095Z,2.2
2019-05-26T04:10:06.358Z,2.1
2019-05-26T04:12:36.876Z,2.4
2019-05-26T04:15:10.665Z,2.1
2019-05-26T04:17:44.595Z,2.0
2019-05-26T04:20:18.353Z,2.1
2019-05-26T04:22:52.293Z,2.0
2019-05-26T04:25:26.274Z,2.0
2019-05-26T04:28:00.014Z,2.2
2019-05-26T04:30:33.736Z,2.0
2019-05-26T04:33:07.664Z,1.8
2019-05-26T04:35:41.442Z,1.8
2019-05-26T04:38:15.340Z,1.8
2019-05-26T04:40:48.996Z,2.0
2019-05-26T04:43:23.548Z,2.0
2019-05-26T04:45:57.334Z,1.6
2019-05-26T04:48:31.482Z,2.2
2019-05-26T04:51:05.233Z,1.9
2019-05-26T04:53:39.130Z,1.9
2019-05-26T04:56:12.860Z,1.9
2019-05-26T04:58:46.674Z,1.6
2019-05-26T05:01:20.394Z,1.9
2019-05-26T05:03:54.687Z,1.9
2019-05-26T05:06:28.581Z,1.9
2019-05-26T05:09:02.468Z,1.7
2019-05-26T05:11:36.212Z,1.7
2019-05-26T05:14:10.093Z,1.6
2019-05-26T05:16:43.948Z,1.8
2019-05-26T05:19:18.095Z,1.8
2019-05-26T05:21:50.185Z,1.7
2019-05-26T05:24:22.631Z,1.8
2019-05-26T05:26:54.796Z,1.8
2019-05-26T05:29:27.313Z,1.8
2019-05-26T05:31:26.088Z,1.9
2019-05-26T05:34:00.179Z,1.4
2019-05-26T05:36:34.169Z,1.9
2019-05-26T05:39:07.838Z,1.8
2019-05-26T05:41:41.578Z,1.8
2019-05-26T05:44:15.547Z,1.8
2019-05-26T05:46:49.288Z,2.0
2019-05-26T05:49:23.273Z,2.1
2019-05-26T05:51:57.061Z,1.7
2019-05-26T05:54:30.674Z,2.1
2019-05-26T05:57:04.448Z,2.1
2019-05-26T05:59:38.071Z,2.0
2019-05-26T06:02:11.987Z,2.4
2019-05-26T06:04:45.691Z,2.0
2019-05-26T06:07:19.662Z,2.3
2019-05-26T06:09:53.528Z,2.3
2019-05-26T06:12:27.405Z,2.6
2019-05-26T06:15:01.183Z,2.1
2019-05-26T06:17:35.231Z,2.1
2019-05-26T06:20:09.060Z,2.0
2019-05-26T06:22:42.839Z,2.4
2019-05-26T06:25:16.837Z,1.9
2019-05-26T06:27:51.289Z,1.7
2019-05-26T06:30:25.081Z,1.7
2019-05-26T06:32:58.925Z,1.9
2019-05-26T06:35:33.259Z,2.0
2019-05-26T06:38:07.291Z,1.9
2019-05-26T06:40:41.071Z,1.9
2019-05-26T06:43:15.233Z,2.4
2019-05-26T06:45:49.159Z,2.6
2019-05-26T06:48:27.170Z,2.6
2019-05-26T06:51:01.068Z,2.6
2019-05-26T06:53:37.782Z,1.9
2019-05-26T06:56:11.563Z,1.8
2019-05-26T06:58:45.599Z,1.7
2019-05-26T07:01:19.361Z,1.5
2019-05-26T07:03:53.171Z,1.5
2019-05-26T07:06:26.831Z,1.5
2019-05-26T07:09:00.648Z,1.4
2019-05-26T07:11:55.817Z,1.3
2019-05-26T07:14:17.058Z,1.4
2019-05-26T07:16:50.777Z,1.4
2019-05-26T07:19:24.730Z,1.4
2019-05-26T07:21:58.417Z,1.4
2019-05-26T07:24:32.691Z,1.4
2019-05-26T07:27:06.388Z,1.4
2019-05-26T07:29:40.325Z,1.3
2019-05-26T07:31:25.269Z,1.5
2019-05-26T07:33:58.961Z,1.4
2019-05-26T07:36:32.969Z,1.5
2019-05-26T07:39:06.672Z,1.6
2019-05-26T07:41:40.791Z,1.3
2019-05-26T07:44:14.618Z,1.8
2019-05-26T07:46:48.496Z,2.3
2019-05-26T07:49:22.268Z,3.1
2019-05-26T07:51:56.014Z,3.2
2019-05-26T07:54:29.827Z,4.6
2019-05-26T07:57:03.882Z,4.3
2019-05-26T07:59:37.636Z,6.7
2019-05-26T08:02:11.612Z,6.9
2019-05-26T08:04:45.638Z,6.5
2019-05-26T08:07:23.371Z,7.0
2019-05-26T08:09:57.152Z,6.4
2019-05-26T08:12:31.153Z,9.6
2019-05-26T08:15:04.903Z,10.6
2019-05-26T08:17:39.341Z,8.0
2019-05-26T08:20:13.107Z,8.2
2019-05-26T08:22:47.091Z,7.4
2019-05-26T08:25:20.851Z,11.8
2019-05-26T08:27:54.733Z,11.1
2019-05-26T08:30:28.431Z,10.3
2019-05-26T08:33:02.503Z,11.8
2019-05-26T08:35:36.182Z,8.9
2019-05-26T08:38:10.386Z,16.4
2019-05-26T08:40:44.165Z,16.7
2019-05-26T08:43:18.288Z,16.3
2019-05-26T08:45:52.075Z,16.9
2019-05-26T08:48:26.005Z,18.0
2019-05-26T08:50:59.751Z,18.2
2019-05-26T08:53:33.662Z,18.0
2019-05-26T08:56:07.475Z,17.4
2019-05-26T08:58:41.259Z,16.5
2019-05-26T09:01:14.999Z,16.9
2019-05-26T09:03:49.136Z,17.1
2019-05-26T09:06:22.895Z,17.0
2019-05-26T09:08:56.669Z,16.2
2019-05-26T09:11:30.399Z,17.6
2019-05-26T09:14:04.403Z,17.0
2019-05-26T09:16:38.252Z,16.8
2019-05-26T09:19:12.259Z,15.6
2019-05-26T09:21:46.296Z,15.7
2019-05-26T09:24:20.107Z,14.9
2019-05-26T09:26:53.813Z,13.3
2019-05-26T09:29:27.668Z,13.5
2019-05-26T09:31:25.709Z,13.1
2019-05-26T09:33:59.483Z,12.9
2019-05-26T09:36:33.301Z,12.2
2019-05-26T09:39:07.053Z,13.2
2019-05-26T09:41:41.141Z,11.6
2019-05-26T09:44:14.841Z,11.7
2019-05-26T09:46:49.176Z,12.4
2019-05-26T09:49:22.852Z,11.1
2019-05-26T09:51:56.871Z,12.4
2019-05-26T09:54:30.566Z,11.4
2019-05-26T09:57:04.667Z,13.0
2019-05-26T09:59:38.363Z,13.8
2019-05-26T10:02:12.514Z,13.6
2019-05-26T10:04:44.883Z,13.5
2019-05-26T10:07:17.338Z,13.6
2019-05-26T10:09:49.570Z,12.2
2019-05-26T10:12:22.118Z,12.5
2019-05-26T10:14:54.317Z,13.6
2019-05-26T10:17:27.123Z,10.9
2019-05-26T10:19:59.380Z,10.0
2019-05-26T10:22:31.823Z,9.9
2019-05-26T10:25:04.015Z,11.0
2019-05-26T10:27:36.475Z,11.2
2019-05-26T10:30:08.546Z,10.9
2019-05-26T10:32:40.758Z,11.8
2019-05-26T10:35:13.072Z,13.5
2019-05-26T10:37:45.383Z,10.8
2019-05-26T10:40:17.589Z,11.5
2019-05-26T10:42:50.632Z,12.1
2019-05-26T10:45:23.233Z,12.8
2019-05-26T10:47:55.680Z,12.3
2019-05-26T10:50:27.979Z,13.0
2019-05-26T10:53:00.567Z,12.0
2019-05-26T10:55:33.329Z,10.8
2019-05-26T10:58:05.721Z,10.5
2019-05-26T11:00:37.940Z,10.7
2019-05-26T11:03:10.779Z,11.5
2019-05-26T11:05:43.173Z,11.4
2019-05-26T11:08:15.559Z,10.9
2019-05-26T11:10:47.722Z,11.5
2019-05-26T11:13:19.564Z,10.1
2019-05-26T11:15:51.173Z,11.3
2019-05-26T11:18:23.228Z,10.7
2019-05-26T11:20:55.044Z,9.6
2019-05-26T11:23:27.021Z,10.7
2019-05-26T11:25:58.585Z,9.9
2019-05-26T11:28:30.351Z,10.5
2019-05-26T11:31:26.594Z,9.5
2019-05-26T11:34:01.179Z,8.5
2019-05-26T11:36:33.691Z,8.1
2019-05-26T11:39:06.668Z,9.3
2019-05-26T11:41:39.088Z,10.0
2019-05-26T11:44:18.592Z,9.1
2019-05-26T11:46:51.110Z,9.2
2019-05-26T11:49:24.612Z,9.4
2019-05-26T11:51:57.559Z,9.4
2019-05-26T11:54:40.375Z,7.8
2019-05-26T11:57:12.657Z,5.9
2019-05-26T11:59:47.620Z,5.1
2019-05-26T12:02:19.967Z,6.9
2019-05-26T12:04:52.220Z,8.1
2019-05-26T12:07:24.445Z,8.0
2019-05-26T12:09:56.787Z,9.2
2019-05-26T12:12:28.898Z,7.7
2019-05-26T12:15:00.587Z,8.9
2019-05-26T12:17:32.438Z,6.2
2019-05-26T12:20:05.803Z,8.3
2019-05-26T12:22:37.487Z,9.7
2019-05-26T12:25:09.386Z,12.3
2019-05-26T12:27:41.277Z,10.3
2019-05-26T12:30:13.666Z,9.3
2019-05-26T12:32:45.667Z,9.3
2019-05-26T12:35:17.890Z,9.3
2019-05-26T12:37:49.850Z,8.6
2019-05-26T12:40:22.014Z,9.6
2019-05-26T12:42:54.045Z,8.3
2019-05-26T12:45:26.343Z,8.1
2019-05-26T12:47:58.583Z,8.4
2019-05-26T12:50:33.021Z,9.1
2019-05-26T12:53:04.860Z,8.1
2019-05-26T12:55:37.094Z,8.0
2019-05-26T12:58:08.993Z,7.8
2019-05-26T13:00:51.986Z,8.5
2019-05-26T13:03:21.332Z,9.4
2019-05-26T13:05:53.287Z,8.5
2019-05-26T13:08:25.073Z,8.4
2019-05-26T13:10:56.980Z,7.8
2019-05-26T13:13:28.591Z,6.4
2019-05-26T13:16:00.490Z,8.2
2019-05-26T13:18:32.267Z,7.6
2019-05-26T13:21:04.441Z,8.0
2019-05-26T13:23:36.001Z,7.2
2019-05-26T13:26:08.017Z,7.4
2019-05-26T13:28:39.708Z,6.6
2019-05-26T13:31:26.026Z,6.5
2019-05-26T13:33:58.414Z,6.4
2019-05-26T13:36:31.012Z,5.5
2019-05-26T13:39:03.222Z,6.5
2019-05-26T13:41:35.903Z,6.2
2019-05-26T13:44:08.169Z,6.6
2019-05-26T13:46:40.478Z,5.9
2019-05-26T13:49:12.709Z,6.4
2019-05-26T13:51:45.214Z,6.1
2019-05-26T13:54:17.421Z,6.6
2019-05-26T13:56:49.666Z,6.3
2019-05-26T13:59:21.873Z,6.9
2019-05-26T14:01:54.407Z,6.6
2019-05-26T14:04:26.557Z,6.8
2019-05-26T14:06:59.240Z,6.8
2019-05-26T14:09:31.563Z,6.7
2019-05-26T14:12:03.899Z,7.1
2019-05-26T14:14:36.067Z,6.9
2019-05-26T14:17:08.453Z,7.2
2019-05-26T14:19:40.675Z,6.9
2019-05-26T14:22:13.187Z,7.6
2019-05-26T14:24:54.543Z,7.5
2019-05-26T14:27:26.619Z,7.9
2019-05-26T14:29:58.782Z,7.2
2019-05-26T14:32:31.336Z,8.4
2019-05-26T14:35:03.533Z,8.7
2019-05-26T14:37:36.042Z,8.0
2019-05-26T14:40:08.257Z,7.6
2019-05-26T14:42:40.783Z,7.8
2019-05-26T14:45:13.031Z,9.1
2019-05-26T14:47:45.476Z,8.3
2019-05-26T14:50:18.197Z,9.4
2019-05-26T14:52:50.995Z,8.7
2019-05-26T14:55:23.337Z,7.8
2019-05-26T14:57:55.931Z,7.7
2019-05-26T15:00:28.295Z,8.5
2019-05-26T15:03:00.803Z,8.8
2019-05-26T15:05:32.975Z,8.3
2019-05-26T15:08:05.711Z,8.2
2019-05-26T15:10:37.871Z,8.1
2019-05-26T15:13:10.516Z,8.2
2019-05-26T15:15:43.228Z,8.5
2019-05-26T15:18:16.175Z,9.2
2019-05-26T15:20:49.045Z,8.9
2019-05-26T15:23:22.363Z,9.3
2019-05-26T15:25:55.179Z,10.3
2019-05-26T15:28:27.864Z,9.5
2019-05-26T15:31:26.082Z,9.0
2019-05-26T15:34:00.504Z,8.7
2019-05-26T15:36:34.403Z,9.5
2019-05-26T15:39:08.515Z,9.2
2019-05-26T15:41:42.729Z,9.4
2019-05-26T15:44:15.368Z,8.9
2019-05-26T15:46:48.081Z,8.5
2019-05-26T15:49:20.615Z,9.4
2019-05-26T15:51:53.300Z,9.2
2019-05-26T15:54:26.720Z,11.8
2019-05-26T15:56:59.529Z,9.3
2019-05-26T15:59:32.519Z,10.3
2019-05-26T16:02:04.798Z,10.5
2019-05-26T16:04:37.334Z,10.8
2019-05-26T16:07:09.953Z,10.2
2019-05-26T16:09:42.765Z,10.9
2019-05-26T16:12:15.181Z,10.1
2019-05-26T16:14:48.968Z,8.9
2019-05-26T16:17:21.708Z,9.6
2019-05-26T16:19:54.695Z,8.3
2019-05-26T16:22:27.564Z,8.1
2019-05-26T16:25:00.630Z,8.6
2019-05-26T16:27:33.617Z,8.1
2019-05-26T16:30:06.207Z,8.0
2019-05-26T16:32:38.773Z,8.3
2019-05-26T16:35:11.693Z,9.5
2019-05-26T16:37:46.327Z,7.4
2019-05-26T16:40:19.751Z,8.7
2019-05-26T16:42:52.603Z,7.5
2019-05-26T16:45:26.178Z,7.8
2019-05-26T16:47:58.923Z,8.0
2019-05-26T16:50:31.914Z,8.5
2019-05-26T16:53:05.563Z,7.9
2019-05-26T16:55:38.742Z,6.7
2019-05-26T16:58:12.717Z,7.3
2019-05-26T17:00:45.574Z,7.1
2019-05-26T17:03:18.278Z,7.4
2019-05-26T17:06:08.104Z,7.2
2019-05-26T17:08:32.188Z,7.5
2019-05-26T17:11:05.709Z,8.1
2019-05-26T17:13:38.480Z,7.4
2019-05-26T17:16:11.384Z,6.9
2019-05-26T17:18:44.721Z,6.2
2019-05-26T17:21:18.208Z,4.2
2019-05-26T17:23:50.999Z,3.4
2019-05-26T17:26:23.703Z,4.3
2019-05-26T17:28:56.873Z,4.3
2019-05-26T17:31:26.604Z,5.8
2019-05-26T17:33:59.387Z,4.9
2019-05-26T17:36:31.997Z,5.0
2019-05-26T17:39:04.474Z,5.0
2019-05-26T17:41:37.077Z,4.5
2019-05-26T17:44:09.507Z,4.1
2019-05-26T17:46:41.897Z,3.9
2019-05-26T17:49:14.120Z,3.5
2019-05-26T17:51:47.575Z,3.9
2019-05-26T17:54:20.117Z,3.8
2019-05-26T17:56:53.060Z,3.8
2019-05-26T17:59:25.431Z,4.0
2019-05-26T18:01:58.026Z,4.1
2019-05-26T18:04:30.535Z,4.1
2019-05-26T18:07:03.149Z,3.5
2019-05-26T18:09:44.769Z,4.2
2019-05-26T18:12:23.445Z,3.8
2019-05-26T18:14:57.977Z,4.2
2019-05-26T18:17:47.754Z,3.6
2019-05-26T18:20:11.653Z,3.9
2019-05-26T18:22:44.311Z,4.1
2019-05-26T18:25:17.035Z,4.1
2019-05-26T18:27:49.633Z,4.5
2019-05-26T18:30:22.106Z,5.6
2019-05-26T18:32:54.654Z,9.0
2019-05-26T18:35:27.005Z,10.7
2019-05-26T18:37:59.304Z,7.5
2019-05-26T18:40:31.758Z,7.0
2019-05-26T18:43:04.211Z,7.1
2019-05-26T18:45:36.517Z,6.2
2019-05-26T18:48:09.041Z,7.0
2019-05-26T18:50:41.340Z,7.0
2019-05-26T18:53:13.783Z,7.4
2019-05-26T18:55:46.163Z,7.0
2019-05-26T18:58:18.729Z,6.7
2019-05-26T19:00:51.717Z,6.2
2019-05-26T19:03:25.005Z,6.7
2019-05-26T19:05:58.268Z,6.6
2019-05-26T19:08:31.864Z,7.4
2019-05-26T19:11:04.639Z,6.3
2019-05-26T19:13:37.353Z,6.6
2019-05-26T19:16:10.193Z,6.6
2019-05-26T19:18:42.845Z,5.8
2019-05-26T19:21:14.978Z,5.4
2019-05-26T19:23:47.466Z,5.7
2019-05-26T19:26:19.699Z,5.9
2019-05-26T19:28:52.451Z,5.4
2019-05-26T19:31:26.898Z,5.2
2019-05-26T19:34:01.099Z,4.9
2019-05-26T19:36:35.331Z,4.9
2019-05-26T19:39:07.663Z,5.2
2019-05-26T19:41:39.817Z,4.9
2019-05-26T19:44:12.962Z,5.4
2019-05-26T19:46:45.310Z,5.4
2019-05-26T19:49:17.719Z,5.6
2019-05-26T19:51:50.070Z,5.5
2019-05-26T19:54:22.686Z,5.9
2019-05-26T19:56:54.983Z,5.9
2019-05-26T19:59:28.067Z,6.1
2019-05-26T20:02:18.567Z,6.2
2019-05-26T20:04:41.219Z,6.1
2019-05-26T20:07:13.555Z,5.8
2019-05-26T20:09:45.405Z,6.3
2019-05-26T20:12:17.103Z,5.9
2019-05-26T20:14:48.931Z,5.6
2019-05-26T20:17:20.874Z,6.0
2019-05-26T20:19:53.228Z,5.6
2019-05-26T20:22:25.137Z,5.8
2019-05-26T20:24:57.637Z,6.2
2019-05-26T20:27:29.663Z,5.4
2019-05-26T20:30:02.288Z,5.8
2019-05-26T20:32:34.327Z,6.1
2019-05-26T20:35:06.322Z,6.0
2019-05-26T20:37:38.123Z,5.6
2019-05-26T20:40:10.283Z,6.1
2019-05-26T20:42:44.710Z,5.8
2019-05-26T20:45:18.329Z,5.6
2019-05-26T20:47:51.099Z,5.3
2019-05-26T20:50:29.997Z,5.0
2019-05-26T20:53:02.404Z,4.9
2019-05-26T20:55:34.188Z,5.4
2019-05-26T20:58:05.873Z,4.4
2019-05-26T21:00:38.002Z,4.5
2019-05-26T21:03:09.564Z,4.4
2019-05-26T21:05:41.518Z,5.7
2019-05-26T21:08:13.129Z,5.5
2019-05-26T21:10:44.914Z,5.0
2019-05-26T21:13:16.526Z,5.6
2019-05-26T21:15:48.715Z,5.8
2019-05-26T21:18:20.314Z,5.6
2019-05-26T21:20:52.068Z,5.4
2019-05-26T21:23:23.717Z,5.8
2019-05-26T21:25:55.372Z,5.7
2019-05-26T21:28:26.914Z,5.2
2019-05-26T21:31:26.836Z,4.7
2019-05-26T21:34:00.573Z,4.4
2019-05-26T21:36:34.378Z,3.9
2019-05-26T21:39:08.228Z,4.2
2019-05-26T21:41:42.003Z,3.7
2019-05-26T21:44:15.795Z,3.8
2019-05-26T21:46:50.033Z,3.7
2019-05-26T21:49:23.859Z,3.9
2019-05-26T21:51:57.772Z,3.8
2019-05-26T21:54:31.505Z,4.1
2019-05-26T21:57:05.393Z,3.5
2019-05-26T21:59:39.126Z,3.4
2019-05-26T22:02:13.358Z,3.5
2019-05-26T22:04:45.647Z,3.7
2019-05-26T22:07:18.190Z,3.1
2019-05-26T22:09:50.418Z,3.7
2019-05-26T22:12:22.782Z,3.1
2019-05-26T22:14:54.996Z,3.5
2019-05-26T22:17:27.590Z,3.6
2019-05-26T22:19:59.936Z,3.6
2019-05-26T22:22:32.466Z,3.6
2019-05-26T22:25:04.723Z,3.5
2019-05-26T22:27:37.209Z,3.4
2019-05-26T22:30:09.461Z,3.5
2019-05-26T22:32:41.873Z,3.3
2019-05-26T22:35:14.197Z,3.2
2019-05-26T22:37:46.716Z,4.4
2019-05-26T22:40:19.177Z,4.1
2019-05-26T22:42:52.660Z,4.0
2019-05-26T22:45:25.733Z,4.0
2019-05-26T22:47:58.441Z,4.5
2019-05-26T22:50:31.271Z,4.6
2019-05-26T22:53:04.130Z,3.9
2019-05-26T22:55:36.380Z,4.2
2019-05-26T22:58:08.787Z,4.3
2019-05-26T23:00:41.104Z,3.7
2019-05-26T23:03:13.876Z,4.1
2019-05-26T23:05:45.842Z,4.2
2019-05-26T23:08:17.536Z,4.2
2019-05-26T23:10:49.171Z,3.7
2019-05-26T23:13:21.197Z,3.9
2019-05-26T23:15:52.819Z,4.1
2019-05-26T23:18:24.668Z,3.5
2019-05-26T23:20:56.381Z,3.8
2019-05-26T23:23:28.177Z,4.1
2019-05-26T23:25:59.759Z,3.9
2019-05-26T23:28:31.617Z,3.7
2019-05-26T23:31:25.561Z,4.6
2019-05-26T23:33:59.764Z,3.9
2019-05-26T23:36:31.989Z,4.1
2019-05-26T23:39:04.494Z,4.4
2019-05-26T23:41:36.882Z,4.0
2019-05-26T23:44:09.412Z,5.0
2019-05-26T23:46:41.722Z,4.3
2019-05-26T23:49:14.131Z,4.2
2019-05-26T23:51:46.479Z,4.1
2019-05-26T23:54:18.902Z,4.7
2019-05-26T23:56:51.099Z,4.5
2019-05-26T23:59:23.556Z,4.5
